createdAt,value
2022-10-28T00:01:28.503Z,101494.03
2022-10-28T00:04:15.927Z,101486.22
2022-10-28T00:07:03.915Z,101491.63
2022-10-28T00:09:51.251Z,101495.47
2022-10-28T00:12:39.034Z,101494.16
2022-10-28T00:15:26.520Z,101501.31
2022-10-28T00:18:13.979Z,101501.00
2022-10-28T00:21:26.182Z,101497.59
2022-10-28T00:24:14.184Z,101501.78
2022-10-28T00:27:01.429Z,101500.97
2022-10-28T00:29:49.089Z,101499.78
2022-10-28T00:32:36.530Z,101501.81
2022-10-28T00:35:23.895Z,101499.00
2022-10-28T00:38:11.280Z,101494.94
2022-10-28T00:40:58.619Z,101483.63
2022-10-28T00:43:48.756Z,101488.41
2022-10-28T00:46:41.222Z,101474.34
2022-10-28T00:49:32.143Z,101468.84
2022-10-28T00:52:24.360Z,101462.66
2022-10-28T00:55:13.906Z,101463.34
2022-10-28T00:58:03.107Z,101454.41
2022-10-28T01:00:50.567Z,101462.44
2022-10-28T01:03:37.861Z,101461.78
2022-10-28T01:06:28.042Z,101470.44
2022-10-28T01:09:15.395Z,101460.69
2022-10-28T01:12:27.041Z,101468.22
2022-10-28T01:15:27.812Z,101476.56
2022-10-28T01:18:39.924Z,101484.47
2022-10-28T01:21:45.786Z,101489.91
2022-10-28T01:24:45.437Z,101472.66
2022-10-28T01:27:55.615Z,101485.28
2022-10-28T01:31:25.090Z,101485.41
2022-10-28T01:34:27.252Z,101485.56
2022-10-28T01:37:19.865Z,101484.34
2022-10-28T01:40:20.816Z,101489.19
2022-10-28T01:43:17.112Z,101494.59
2022-10-28T01:46:40.190Z,101485.00
2022-10-28T01:50:06.385Z,101478.44
2022-10-28T01:52:58.303Z,101488.41
2022-10-28T01:55:50.206Z,101486.22
2022-10-28T01:58:39.275Z,101481.38
2022-10-28T02:01:28.954Z,101480.28
2022-10-28T02:04:16.558Z,101478.81
2022-10-28T02:07:04.789Z,101472.16
2022-10-28T02:10:15.927Z,101459.09
2022-10-28T02:13:08.254Z,101443.81
2022-10-28T02:16:04.727Z,101456.28
2022-10-28T02:19:27.103Z,101468.34
2022-10-28T02:22:43.358Z,101480.59
2022-10-28T02:25:37.680Z,101466.38
2022-10-28T02:28:37.109Z,101463.34
2022-10-28T02:31:35.016Z,101462.69
2022-10-28T02:34:30.203Z,101451.56
2022-10-28T02:37:27.092Z,101445.03
2022-10-28T02:40:19.213Z,101441.41
2022-10-28T02:43:09.072Z,101439.50
2022-10-28T02:46:00.311Z,101427.56
2022-10-28T02:48:51.698Z,101429.31
2022-10-28T02:51:45.410Z,101432.72
2022-10-28T02:54:45.609Z,101424.47
2022-10-28T02:57:36.112Z,101417.59
2022-10-28T03:00:24.975Z,101418.56
2022-10-28T03:03:13.440Z,101411.44
2022-10-28T03:06:00.830Z,101414.63
2022-10-28T03:08:48.106Z,101411.59
2022-10-28T03:11:35.631Z,101404.25
2022-10-28T03:14:23.311Z,101402.66
2022-10-28T03:17:10.596Z,101399.50
2022-10-28T03:19:58.253Z,101401.88
2022-10-28T03:22:46.519Z,101399.09
2022-10-28T03:25:33.877Z,101389.44
2022-10-28T03:28:21.148Z,101385.41
2022-10-28T03:31:08.940Z,101388.63
2022-10-28T03:33:56.262Z,101385.25
2022-10-28T03:36:43.553Z,101380.13
2022-10-28T03:39:30.853Z,101393.47
2022-10-28T03:42:18.157Z,101400.38
2022-10-28T03:45:06.001Z,101400.50
2022-10-28T03:47:53.564Z,101404.00
2022-10-28T03:50:41.434Z,101415.75
2022-10-28T03:53:31.207Z,101415.72
2022-10-28T03:56:18.850Z,101406.72
2022-10-28T03:59:08.653Z,101396.50
2022-10-28T04:01:56.015Z,101384.03
2022-10-28T04:04:43.492Z,101391.97
2022-10-28T04:07:30.832Z,101391.16
2022-10-28T04:10:18.175Z,101392.19
2022-10-28T04:13:06.652Z,101385.66
2022-10-28T04:15:54.033Z,101380.47
2022-10-28T04:18:41.305Z,101383.19
2022-10-28T04:21:28.685Z,101377.28
2022-10-28T04:24:16.194Z,101383.69
2022-10-28T04:27:04.203Z,101381.09
2022-10-28T04:29:51.595Z,101376.47
2022-10-28T04:32:40.711Z,101369.63
2022-10-28T04:35:28.003Z,101365.66
2022-10-28T04:38:17.091Z,101362.84
2022-10-28T04:41:04.687Z,101358.72
2022-10-28T04:43:52.072Z,101366.34
2022-10-28T04:46:39.369Z,101356.81
2022-10-28T04:49:26.716Z,101344.53
2022-10-28T04:52:15.740Z,101344.06
2022-10-28T04:55:03.501Z,101329.03
2022-10-28T04:57:58.946Z,101331.84
2022-10-28T05:00:46.199Z,101325.50
2022-10-28T05:03:34.257Z,101330.63
2022-10-28T05:06:21.685Z,101331.91
2022-10-28T05:09:08.990Z,101339.66
2022-10-28T05:11:56.437Z,101344.47
2022-10-28T05:14:46.511Z,101350.72
2022-10-28T05:17:34.558Z,101358.91
2022-10-28T05:20:22.012Z,101356.44
2022-10-28T05:23:09.369Z,101366.34
2022-10-28T05:25:56.661Z,101369.28
2022-10-28T05:28:44.059Z,101363.50
2022-10-28T05:31:31.339Z,101353.81
2022-10-28T05:34:18.671Z,101340.53
2022-10-28T05:37:05.948Z,101332.53
2022-10-28T05:39:53.370Z,101338.56
2022-10-28T05:42:42.743Z,101334.16
2022-10-28T05:48:25.308Z,101333.81
2022-10-28T05:51:12.599Z,101329.69
2022-10-28T05:53:59.934Z,101324.75
2022-10-28T05:56:47.226Z,101319.16
2022-10-28T05:59:34.725Z,101315.50
2022-10-28T06:02:22.017Z,101312.34
2022-10-28T06:05:10.462Z,101323.59
2022-10-28T06:07:57.784Z,101312.69
2022-10-28T06:10:56.456Z,101318.25
2022-10-28T06:13:43.995Z,101309.13
2022-10-28T06:16:31.630Z,101312.97
2022-10-28T06:19:20.099Z,101308.03
2022-10-28T06:22:07.486Z,101314.56
2022-10-28T06:24:54.770Z,101324.28
2022-10-28T06:27:42.428Z,101322.69
2022-10-28T06:30:29.789Z,101324.78
2022-10-28T06:33:17.191Z,101324.28
2022-10-28T06:36:05.226Z,101329.81
2022-10-28T06:38:52.674Z,101326.66
2022-10-28T06:41:40.040Z,101330.44
2022-10-28T06:44:27.399Z,101333.75
2022-10-28T06:47:16.154Z,101332.94
2022-10-28T06:50:03.538Z,101325.94
2022-10-28T06:52:50.888Z,101319.09
2022-10-28T06:55:38.213Z,101311.13
2022-10-28T06:58:26.176Z,101306.66
2022-10-28T07:01:13.678Z,101304.63
2022-10-28T07:04:00.966Z,101298.63
2022-10-28T07:06:49.923Z,101305.31
2022-10-28T07:09:39.829Z,101300.38
2022-10-28T07:12:28.178Z,101298.69
2022-10-28T07:15:15.610Z,101296.63
2022-10-28T07:18:03.063Z,101307.13
2022-10-28T07:20:50.638Z,101310.22
2022-10-28T07:23:37.916Z,101319.66
2022-10-28T07:26:25.316Z,101318.34
2022-10-28T07:29:12.633Z,101323.97
2022-10-28T07:32:00.317Z,101328.16
2022-10-28T07:34:47.707Z,101314.94
2022-10-28T07:37:35.081Z,101312.09
2022-10-28T07:40:22.935Z,101311.69
2022-10-28T07:43:10.244Z,101311.38
2022-10-28T07:45:58.360Z,101322.13
2022-10-28T07:48:45.712Z,101318.81
2022-10-28T07:51:33.018Z,101315.16
2022-10-28T07:54:20.369Z,101328.41
2022-10-28T07:57:07.642Z,101320.00
2022-10-28T07:59:54.978Z,101337.06
2022-10-28T08:02:42.479Z,101332.13
2022-10-28T08:05:29.886Z,101335.81
2022-10-28T08:08:17.272Z,101341.91
2022-10-28T08:11:10.796Z,101353.91
2022-10-28T08:13:58.145Z,101347.97
2022-10-28T08:16:45.656Z,101363.78
2022-10-28T08:19:33.305Z,101371.94
2022-10-28T08:22:20.659Z,101378.69
2022-10-28T08:25:08.351Z,101382.50
2022-10-28T08:27:57.492Z,101387.41
2022-10-28T08:30:57.213Z,101404.06
2022-10-28T08:33:55.811Z,101415.69
2022-10-28T08:36:43.240Z,101417.75
2022-10-28T08:39:30.591Z,101416.16
2022-10-28T08:42:29.231Z,101426.16
2022-10-28T08:45:48.325Z,101433.47
2022-10-28T08:48:37.062Z,101433.56
2022-10-28T08:51:46.123Z,101442.63
2022-10-28T08:54:53.346Z,101459.50
2022-10-28T08:57:52.923Z,101454.41
2022-10-28T09:00:40.347Z,101472.59
2022-10-28T09:03:34.424Z,101476.81
2022-10-28T09:06:24.255Z,101486.91
2022-10-28T09:09:19.813Z,101504.66
2022-10-28T09:12:23.311Z,101528.06
2022-10-28T09:15:35.461Z,101533.97
2022-10-28T09:18:56.075Z,101551.44
2022-10-28T09:22:03.046Z,101561.13
2022-10-28T09:24:50.327Z,101570.03
2022-10-28T09:27:44.860Z,101568.91
2022-10-28T09:30:44.600Z,101575.75
2022-10-28T09:33:34.597Z,101579.16
2022-10-28T09:36:29.369Z,101580.41
2022-10-28T09:39:25.296Z,101589.72
2022-10-28T09:42:27.240Z,101583.50
2022-10-28T09:45:22.378Z,101581.72
2022-10-28T09:48:19.229Z,101589.91
2022-10-28T09:51:07.781Z,101599.91
2022-10-28T09:53:59.486Z,101602.28
2022-10-28T09:56:46.839Z,101610.19
2022-10-28T09:59:34.714Z,101612.09
2022-10-28T10:02:27.307Z,101600.34
2022-10-28T10:05:19.014Z,101614.63
2022-10-28T10:08:09.044Z,101620.25
2022-10-28T10:11:05.344Z,101622.03
2022-10-28T10:13:54.230Z,101611.78
2022-10-28T10:16:47.277Z,101619.03
2022-10-28T10:20:05.830Z,101626.41
2022-10-28T10:22:53.467Z,101622.13
2022-10-28T10:25:41.355Z,101617.66
2022-10-28T10:28:29.232Z,101615.09
2022-10-28T10:31:26.705Z,101618.00
2022-10-28T10:34:23.616Z,101615.25
2022-10-28T10:37:20.060Z,101625.22
2022-10-28T10:40:19.336Z,101602.84
2022-10-28T10:43:22.822Z,101610.91
2022-10-28T10:46:16.476Z,101615.16
2022-10-28T10:49:14.574Z,101618.56
2022-10-28T10:52:04.656Z,101613.13
2022-10-28T10:54:59.264Z,101614.88
2022-10-28T10:57:47.622Z,101619.81
2022-10-28T11:00:44.269Z,101615.72
2022-10-28T11:03:36.711Z,101606.47
2022-10-28T11:06:29.131Z,101609.84
2022-10-28T11:09:31.408Z,101610.31
2022-10-28T11:12:27.874Z,101600.63
2022-10-28T11:15:25.323Z,101595.66
2022-10-28T11:18:12.518Z,101596.25
2022-10-28T11:21:07.310Z,101590.84
2022-10-28T11:24:00.737Z,101591.78
2022-10-28T11:26:57.035Z,101582.56
2022-10-28T11:29:46.006Z,101588.06
2022-10-28T11:32:54.810Z,101581.09
2022-10-28T11:36:03.380Z,101572.03
2022-10-28T11:39:15.087Z,101579.59
2022-10-28T11:42:23.768Z,101572.97
2022-10-28T11:45:14.056Z,101562.38
2022-10-28T11:48:22.748Z,101570.28
2022-10-28T11:51:37.906Z,101563.72
2022-10-28T11:54:48.448Z,101558.59
2022-10-28T11:57:59.665Z,101560.53
2022-10-28T12:00:56.289Z,101558.56
2022-10-28T12:03:52.894Z,101566.03
2022-10-28T12:07:08.132Z,101553.78
2022-10-28T12:10:14.535Z,101542.75
2022-10-28T12:13:24.955Z,101534.88
2022-10-28T12:16:28.989Z,101528.53
2022-10-28T12:19:17.776Z,101517.91
2022-10-28T12:22:19.724Z,101529.34
2022-10-28T12:25:17.294Z,101526.13
2022-10-28T12:28:14.587Z,101529.69
2022-10-28T12:31:02.926Z,101529.69
2022-10-28T12:33:56.590Z,101537.25
2022-10-28T12:36:58.349Z,101534.91
2022-10-28T12:39:54.229Z,101528.03
2022-10-28T12:42:46.092Z,101529.81
2022-10-28T12:45:33.472Z,101521.28
2022-10-28T12:48:45.857Z,101521.47
2022-10-28T12:51:41.258Z,101515.16
2022-10-28T12:54:43.821Z,101520.47
2022-10-28T12:57:34.503Z,101513.34
2022-10-28T13:00:32.153Z,101509.16
2022-10-28T13:03:19.520Z,101511.59
2022-10-28T13:06:32.208Z,101497.31
2022-10-28T13:09:50.432Z,101494.63
2022-10-28T13:12:56.784Z,101503.00
2022-10-28T13:16:08.381Z,101496.69
2022-10-28T13:19:10.161Z,101499.06
2022-10-28T13:22:10.079Z,101509.16
2022-10-28T13:25:20.021Z,101499.41
2022-10-28T13:28:14.798Z,101497.34
2022-10-28T13:31:07.285Z,101503.19
2022-10-28T13:33:55.859Z,101500.66
2022-10-28T13:36:46.952Z,101495.63
2022-10-28T13:39:37.161Z,101498.34
2022-10-28T13:42:24.445Z,101487.72
2022-10-28T13:45:50.489Z,101488.16
2022-10-28T13:48:46.399Z,101493.00
2022-10-28T13:51:33.968Z,101499.28
2022-10-28T13:54:28.666Z,101485.59
2022-10-28T13:57:37.560Z,101490.50
2022-10-28T14:03:27.290Z,101478.81
2022-10-28T14:06:31.171Z,101485.94
2022-10-28T14:09:28.872Z,101488.28
2022-10-28T14:12:27.650Z,101494.56
2022-10-28T14:15:40.614Z,101494.13
2022-10-28T14:18:45.013Z,101489.69
2022-10-28T14:21:44.771Z,101489.50
2022-10-28T14:24:39.183Z,101482.28
2022-10-28T14:27:43.226Z,101484.13
2022-10-28T14:30:30.625Z,101489.56
2022-10-28T14:33:22.934Z,101493.78
2022-10-28T14:36:19.328Z,101484.91
2022-10-28T14:39:20.125Z,101495.06
2022-10-28T14:42:52.675Z,101494.88
2022-10-28T14:45:43.315Z,101484.47
2022-10-28T14:48:49.643Z,101478.78
2022-10-28T14:51:40.263Z,101475.44
2022-10-28T14:54:55.601Z,101472.28
2022-10-28T14:57:44.743Z,101465.03
2022-10-28T15:00:41.190Z,101477.41
2022-10-28T15:03:29.823Z,101469.38
2022-10-28T15:06:45.948Z,101463.66
2022-10-28T15:09:34.979Z,101480.03
2022-10-28T15:12:26.238Z,101464.59
2022-10-28T15:15:25.138Z,101472.25
2022-10-28T15:18:25.688Z,101474.81
2022-10-28T15:21:18.071Z,101470.59
2022-10-28T15:24:07.604Z,101471.28
2022-10-28T15:26:56.041Z,101472.75
2022-10-28T15:29:43.721Z,101455.31
2022-10-28T15:32:33.851Z,101459.19
2022-10-28T15:35:45.197Z,101452.13
2022-10-28T15:38:38.299Z,101454.69
2022-10-28T15:41:25.620Z,101451.25
2022-10-28T15:44:43.019Z,101450.88
2022-10-28T15:47:33.301Z,101450.63
2022-10-28T15:50:28.440Z,101449.69
2022-10-28T15:53:38.107Z,101459.72
2022-10-28T15:56:29.718Z,101452.22
2022-10-28T15:59:21.630Z,101442.53
2022-10-28T16:02:47.842Z,101446.50
2022-10-28T16:05:35.421Z,101447.06
2022-10-28T16:08:32.425Z,101446.00
2022-10-28T16:11:20.394Z,101449.00
2022-10-28T16:14:26.688Z,101445.13
2022-10-28T16:17:18.526Z,101449.91
2022-10-28T16:20:17.061Z,101442.72
2022-10-28T16:23:14.959Z,101445.03
2022-10-28T16:26:02.776Z,101439.03
2022-10-28T16:28:50.123Z,101441.78
2022-10-28T16:31:37.491Z,101440.50
2022-10-28T16:34:25.173Z,101435.31
2022-10-28T16:37:25.809Z,101443.84
2022-10-28T16:40:37.777Z,101423.97
2022-10-28T16:43:23.905Z,101431.22
2022-10-28T16:46:12.670Z,101418.84
2022-10-28T16:48:59.943Z,101421.56
2022-10-28T16:51:47.311Z,101428.88
2022-10-28T16:54:34.618Z,101436.72
2022-10-28T17:00:16.045Z,101431.72
2022-10-28T17:03:03.666Z,101430.22
2022-10-28T17:05:51.011Z,101438.88
2022-10-28T17:11:45.926Z,101449.50
2022-10-28T17:14:33.248Z,101434.69
2022-10-28T17:17:20.759Z,101443.59
2022-10-28T17:20:09.896Z,101444.75
2022-10-28T17:22:58.338Z,101443.59
2022-10-28T17:25:56.036Z,101442.34
2022-10-28T17:28:43.633Z,101456.41
2022-10-28T17:31:30.972Z,101449.00
2022-10-28T17:34:18.698Z,101449.09
2022-10-28T17:37:06.109Z,101454.50
2022-10-28T17:42:42.787Z,101471.25
2022-10-28T17:45:30.178Z,101476.38
2022-10-28T17:48:17.524Z,101476.38
2022-10-28T17:51:04.903Z,101479.56
2022-10-28T17:53:55.729Z,101478.41
2022-10-28T17:56:43.218Z,101481.13
2022-10-28T17:59:30.859Z,101466.31
2022-10-28T18:02:18.290Z,101474.09
2022-10-28T18:05:06.090Z,101474.09
2022-10-28T18:07:59.813Z,101481.41
2022-10-28T18:11:00.139Z,101478.31
2022-10-28T18:13:49.988Z,101475.47
2022-10-28T18:16:37.539Z,101481.84
2022-10-28T18:19:25.119Z,101477.97
2022-10-28T18:22:12.837Z,101485.72
2022-10-28T18:25:00.149Z,101482.97
2022-10-28T18:27:47.523Z,101475.22
2022-10-28T18:30:34.820Z,101478.66
2022-10-28T18:33:22.206Z,101479.34
2022-10-28T18:36:18.257Z,101482.69
2022-10-28T18:39:09.495Z,101481.41
2022-10-28T18:41:56.781Z,101478.56
2022-10-28T18:44:44.253Z,101483.03
2022-10-28T18:47:34.536Z,101478.13
2022-10-28T18:50:22.022Z,101490.88
2022-10-28T18:53:09.911Z,101484.09
2022-10-28T18:56:01.063Z,101491.03
2022-10-28T18:58:51.310Z,101489.66
2022-10-28T19:01:38.773Z,101484.78
2022-10-28T19:04:26.296Z,101483.84
2022-10-28T19:07:13.654Z,101481.38
2022-10-28T19:10:00.948Z,101488.88
2022-10-28T19:12:52.811Z,101497.44
2022-10-28T19:15:46.532Z,101494.91
2022-10-28T19:18:36.575Z,101501.50
2022-10-28T19:21:25.313Z,101513.34
2022-10-28T19:24:12.592Z,101514.09
2022-10-28T19:27:00.212Z,101519.00
2022-10-28T19:29:48.282Z,101529.31
2022-10-28T19:32:39.319Z,101533.59
2022-10-28T19:35:26.603Z,101542.00
2022-10-28T19:38:14.299Z,101550.22
2022-10-28T19:41:11.269Z,101541.75
2022-10-28T19:44:00.516Z,101543.69
2022-10-28T19:46:47.821Z,101549.09
2022-10-28T19:49:39.370Z,101548.50
2022-10-28T19:52:28.034Z,101549.31
2022-10-28T19:55:15.562Z,101556.50
2022-10-28T19:58:02.876Z,101560.38
2022-10-28T20:00:50.286Z,101569.38
2022-10-28T20:03:39.259Z,101567.44
2022-10-28T20:06:31.889Z,101576.09
2022-10-28T20:09:19.505Z,101588.59
2022-10-28T20:12:07.465Z,101588.59
2022-10-28T20:14:54.940Z,101584.75
2022-10-28T20:17:42.744Z,101590.22
2022-10-28T20:20:30.030Z,101603.44
2022-10-28T20:23:17.650Z,101593.63
2022-10-28T20:26:07.000Z,101605.75
2022-10-28T20:28:54.667Z,101601.41
2022-10-28T20:31:41.943Z,101604.75
2022-10-28T20:34:29.246Z,101609.84
2022-10-28T20:37:16.591Z,101617.41
2022-10-28T20:40:07.329Z,101625.25
2022-10-28T20:42:55.742Z,101617.41
2022-10-28T20:45:43.362Z,101620.03
2022-10-28T20:48:31.101Z,101630.97
2022-10-28T20:51:18.462Z,101619.44
2022-10-28T20:54:06.310Z,101608.41
2022-10-28T20:56:53.573Z,101621.03
2022-10-28T20:59:40.873Z,101621.31
2022-10-28T21:02:28.330Z,101632.13
2022-10-28T21:05:15.796Z,101632.00
2022-10-28T21:08:03.196Z,101642.88
2022-10-28T21:10:50.637Z,101637.13
2022-10-28T21:13:37.959Z,101626.09
2022-10-28T21:16:26.816Z,101643.22
2022-10-28T21:19:14.234Z,101647.88
2022-10-28T21:22:01.530Z,101638.53
2022-10-28T21:24:48.832Z,101641.38
2022-10-28T21:27:36.551Z,101631.00
2022-10-28T21:30:24.874Z,101620.88
2022-10-28T21:33:12.300Z,101619.75
2022-10-28T21:36:02.798Z,101638.59
2022-10-28T21:38:54.711Z,101637.75
2022-10-28T21:41:42.405Z,101643.31
2022-10-28T21:44:29.801Z,101656.41
2022-10-28T21:50:08.533Z,101648.84
2022-10-28T21:55:47.143Z,101642.94
2022-10-28T21:58:36.702Z,101651.34
2022-10-28T22:01:24.625Z,101655.59
2022-10-28T22:04:11.986Z,101655.44
2022-10-28T22:06:59.275Z,101660.56
2022-10-28T22:09:46.982Z,101649.53
2022-10-28T22:12:34.285Z,101642.69
2022-10-28T22:15:22.847Z,101650.28
2022-10-28T22:18:10.452Z,101649.56
2022-10-28T22:21:03.600Z,101651.97
2022-10-28T22:23:51.191Z,101656.16
2022-10-28T22:26:38.605Z,101658.56
2022-10-28T22:29:25.989Z,101656.72
2022-10-28T22:32:13.265Z,101661.41
2022-10-28T22:35:00.586Z,101652.88
2022-10-28T22:37:48.105Z,101655.03
2022-10-28T22:40:36.209Z,101650.81
2022-10-28T22:43:26.471Z,101651.84
2022-10-28T22:46:15.145Z,101643.84
2022-10-28T22:49:03.670Z,101652.28
2022-10-28T22:51:51.013Z,101634.78
2022-10-28T22:54:38.363Z,101642.44
2022-10-28T22:57:25.618Z,101638.19
2022-10-28T23:00:13.404Z,101639.00
2022-10-28T23:03:01.160Z,101637.63
2022-10-28T23:05:48.542Z,101639.28
2022-10-28T23:08:36.771Z,101640.94
2022-10-28T23:11:24.403Z,101645.97
2022-10-28T23:14:11.766Z,101642.44
2022-10-28T23:16:59.816Z,101645.47
2022-10-28T23:19:47.159Z,101643.91
2022-10-28T23:22:34.487Z,101648.69
2022-10-28T23:25:21.926Z,101638.88
2022-10-28T23:28:10.028Z,101627.38
2022-10-28T23:31:01.910Z,101617.19
2022-10-28T23:33:49.375Z,101619.13
2022-10-28T23:36:37.566Z,101620.88
2022-10-28T23:39:25.135Z,101632.44
2022-10-28T23:42:12.458Z,101622.31
2022-10-28T23:44:59.800Z,101631.81
2022-10-28T23:47:47.112Z,101621.13
2022-10-28T23:50:34.370Z,101635.44
2022-10-28T23:53:22.311Z,101636.31
2022-10-28T23:56:09.660Z,101630.72
2022-10-28T23:58:57.013Z,101619.53
